createdAt,value
2019-05-17T00:00:47.326Z,61.80
2019-05-17T00:03:17.001Z,62.10
2019-05-17T00:05:46.609Z,62.20
2019-05-17T00:08:17.709Z,62.80
2019-05-17T00:10:46.499Z,63.50
2019-05-17T00:13:17.904Z,63.70
2019-05-17T00:15:47.412Z,64.30
2019-05-17T00:18:17.135Z,64.80
2019-05-17T00:20:46.550Z,64.90
2019-05-17T00:23:17.389Z,65.50
2019-05-17T00:25:47.014Z,65.60
2019-05-17T00:28:16.455Z,66.10
2019-05-17T00:30:46.503Z,66.40
2019-05-17T00:33:17.160Z,66.80
2019-05-17T00:35:46.854Z,67.10
2019-05-17T00:38:16.886Z,67.60
2019-05-17T00:40:49.098Z,68.60
2019-05-17T00:43:17.811Z,69.40
2019-05-17T00:45:46.827Z,69.60
2019-05-17T00:48:17.131Z,69.80
2019-05-17T00:50:52.330Z,70.20
2019-05-17T00:53:16.413Z,71.10
2019-05-17T00:55:46.675Z,71.40
2019-05-17T00:58:17.278Z,72.10
2019-05-17T01:00:47.953Z,72.70
2019-05-17T01:03:16.753Z,73.10
2019-05-17T01:05:47.332Z,73.50
2019-05-17T01:08:17.485Z,73.40
2019-05-17T01:10:47.358Z,73.80
2019-05-17T01:13:17.575Z,74.70
2019-05-17T01:15:47.376Z,75.10
2019-05-17T01:18:16.331Z,75.10
2019-05-17T01:20:47.296Z,75.60
2019-05-17T01:23:16.626Z,76.00
2019-05-17T01:25:45.267Z,76.20
2019-05-17T01:28:16.064Z,76.00
2019-05-17T01:30:46.367Z,76.10
2019-05-17T01:33:17.110Z,76.20
2019-05-17T01:35:46.629Z,76.00
2019-05-17T01:38:17.728Z,75.70
2019-05-17T01:40:46.379Z,75.60
2019-05-17T01:43:16.688Z,75.90
2019-05-17T01:45:45.260Z,75.70
2019-05-17T01:48:13.873Z,76.00
2019-05-17T01:50:43.021Z,76.10
2019-05-17T01:53:11.766Z,76.50
2019-05-17T01:55:40.633Z,76.70
2019-05-17T01:58:09.539Z,77.10
2019-05-17T02:00:38.123Z,77.10
2019-05-17T02:03:07.183Z,77.20
2019-05-17T02:05:37.386Z,77.20
2019-05-17T02:08:06.717Z,77.30
2019-05-17T02:10:37.643Z,77.80
2019-05-17T02:13:06.602Z,78.20
2019-05-17T02:15:37.884Z,78.50
2019-05-17T02:18:07.051Z,78.60
2019-05-17T02:20:37.386Z,78.60
2019-05-17T02:23:07.256Z,78.50
2019-05-17T02:25:36.930Z,78.40
2019-05-17T02:28:07.955Z,78.70
2019-05-17T02:30:36.366Z,78.90
2019-05-17T02:33:05.447Z,78.80
2019-05-17T02:35:34.169Z,79.40
2019-05-17T02:38:03.347Z,79.70
2019-05-17T02:40:33.914Z,79.60
2019-05-17T02:43:03.402Z,79.90
2019-05-17T02:45:32.976Z,80.30
2019-05-17T02:48:03.956Z,80.80
2019-05-17T02:50:33.365Z,81.30
2019-05-17T02:53:04.423Z,82.10
2019-05-17T02:55:33.129Z,82.50
2019-05-17T02:58:03.381Z,82.60
2019-05-17T03:00:33.860Z,82.80
2019-05-17T03:03:03.623Z,83.00
2019-05-17T03:05:33.896Z,82.90
2019-05-17T03:08:04.229Z,82.50
2019-05-17T03:10:33.855Z,82.00
2019-05-17T03:13:04.059Z,81.60
2019-05-17T03:15:33.309Z,81.60
2019-05-17T03:18:03.612Z,81.50
2019-05-17T03:20:32.912Z,81.30
2019-05-17T03:23:03.777Z,80.90
2019-05-17T03:25:33.329Z,80.80
2019-05-17T03:28:03.376Z,80.50
2019-05-17T03:30:36.773Z,80.50
2019-05-17T03:33:06.844Z,80.50
2019-05-17T03:35:38.007Z,80.70
2019-05-17T03:38:04.841Z,80.60
2019-05-17T03:41:01.089Z,80.60
2019-05-17T03:43:06.473Z,81.10
2019-05-17T03:45:35.159Z,81.10
2019-05-17T03:48:05.067Z,81.00
2019-05-17T03:50:34.130Z,81.00
2019-05-17T03:53:03.156Z,81.50
2019-05-17T03:55:33.283Z,81.90
2019-05-17T03:58:03.410Z,81.90
2019-05-17T04:00:35.244Z,82.00
2019-05-17T04:03:03.292Z,82.10
2019-05-17T04:05:33.303Z,82.50
2019-05-17T04:08:03.508Z,82.40
2019-05-17T04:10:33.533Z,82.50
2019-05-17T04:13:04.051Z,82.30
2019-05-17T04:15:33.079Z,82.20
2019-05-17T04:18:04.149Z,82.30
2019-05-17T04:20:33.267Z,82.30
2019-05-17T04:23:03.990Z,82.20
2019-05-17T04:25:33.793Z,82.50
2019-05-17T04:28:03.322Z,82.60
2019-05-17T04:30:32.737Z,82.40
2019-05-17T04:33:03.522Z,82.30
2019-05-17T04:35:32.816Z,82.10
2019-05-17T04:38:04.023Z,82.20
2019-05-17T04:40:33.897Z,81.90
2019-05-17T04:43:03.259Z,81.40
2019-05-17T04:45:33.670Z,81.30
2019-05-17T04:48:03.998Z,81.00
2019-05-17T04:50:34.018Z,80.90
2019-05-17T04:53:03.202Z,80.80
2019-05-17T04:55:34.248Z,80.20
2019-05-17T04:58:03.932Z,80.00
2019-05-17T05:00:34.054Z,79.70
2019-05-17T05:03:04.208Z,78.90
2019-05-17T05:05:33.485Z,79.00
2019-05-17T05:08:03.268Z,79.00
2019-05-17T05:10:33.787Z,78.70
2019-05-17T05:13:08.519Z,77.80
2019-05-17T05:15:43.987Z,78.40
2019-05-17T05:18:13.251Z,76.90
2019-05-17T05:20:43.494Z,76.90
2019-05-17T05:23:13.154Z,76.30
2019-05-17T05:25:43.093Z,76.00
2019-05-17T05:28:12.124Z,75.60
2019-05-17T05:30:42.202Z,75.50
2019-05-17T05:33:12.891Z,74.10
2019-05-17T05:35:42.705Z,74.20
2019-05-17T05:38:13.102Z,74.30
2019-05-17T05:40:42.622Z,74.20
2019-05-17T05:43:11.913Z,76.00
2019-05-17T05:45:41.663Z,75.50
2019-05-17T05:48:12.786Z,75.50
2019-05-17T05:50:43.595Z,75.40
2019-05-17T05:53:12.985Z,75.30
2019-05-17T05:55:43.063Z,75.50
2019-05-17T05:58:12.338Z,75.20
2019-05-17T06:00:42.734Z,75.30
2019-05-17T06:03:12.271Z,75.50
2019-05-17T06:05:42.223Z,75.30
2019-05-17T06:08:12.539Z,74.80
2019-05-17T06:10:42.616Z,73.20
2019-05-17T06:13:13.372Z,72.70
2019-05-17T06:15:42.919Z,73.80
2019-05-17T06:18:13.370Z,73.40
2019-05-17T06:20:42.167Z,73.10
2019-05-17T06:23:12.347Z,72.40
2019-05-17T06:25:43.601Z,71.90
2019-05-17T06:28:11.698Z,71.20
2019-05-17T06:30:42.986Z,70.60
2019-05-17T06:33:12.083Z,70.50
2019-05-17T06:35:42.609Z,69.70
2019-05-17T06:38:11.993Z,69.10
2019-05-17T06:40:41.989Z,69.90
2019-05-17T06:43:12.924Z,68.40
2019-05-17T06:45:42.020Z,68.10
2019-05-17T06:48:11.662Z,68.10
2019-05-17T06:50:43.109Z,67.30
2019-05-17T06:53:12.896Z,67.90
2019-05-17T06:55:42.502Z,67.40
2019-05-17T06:58:11.998Z,65.70
2019-05-17T07:00:40.840Z,66.60
2019-05-17T07:03:10.184Z,66.20
2019-05-17T07:05:40.660Z,65.70
2019-05-17T07:08:10.763Z,65.60
2019-05-17T07:10:39.956Z,64.80
2019-05-17T07:13:10.759Z,64.90
2019-05-17T07:15:47.344Z,65.10
2019-05-17T07:18:12.369Z,65.30
2019-05-17T07:20:40.990Z,64.50
2019-05-17T07:23:10.721Z,65.30
2019-05-17T07:25:39.917Z,65.60
2019-05-17T07:28:10.171Z,63.80
2019-05-17T07:30:42.935Z,63.70
2019-05-17T07:33:13.193Z,61.80
2019-05-17T07:35:41.993Z,62.70
2019-05-17T07:38:10.971Z,61.70
2019-05-17T07:40:40.057Z,61.60
2019-05-17T07:43:13.789Z,61.40
2019-05-17T07:45:40.480Z,60.90
2019-05-17T07:48:09.944Z,60.60
2019-05-17T07:50:39.895Z,61.70
2019-05-17T07:53:10.311Z,61.70
2019-05-17T07:55:39.839Z,61.40
2019-05-17T07:58:10.022Z,60.20
2019-05-17T08:00:39.935Z,59.40
2019-05-17T08:03:12.898Z,59.30
2019-05-17T08:05:40.299Z,59.10
2019-05-17T08:08:10.018Z,57.90
2019-05-17T08:10:41.050Z,57.60
2019-05-17T08:13:24.779Z,57.60
2019-05-17T08:15:40.529Z,58.40
2019-05-17T08:18:11.343Z,57.40
2019-05-17T08:20:40.216Z,56.40
2019-05-17T08:23:10.540Z,55.40
2019-05-17T08:25:52.072Z,56.90
2019-05-17T08:28:12.673Z,57.00
2019-05-17T08:30:41.432Z,57.10
2019-05-17T08:33:11.130Z,57.40
2019-05-17T08:35:40.335Z,56.20
2019-05-17T08:38:10.387Z,57.20
2019-05-17T08:40:40.688Z,56.80
2019-05-17T08:43:10.096Z,57.80
2019-05-17T08:45:43.285Z,57.30
2019-05-17T08:48:11.982Z,56.80
2019-05-17T08:50:43.136Z,55.70
2019-05-17T08:53:11.870Z,55.50
2019-05-17T08:55:41.242Z,55.30
2019-05-17T08:58:10.526Z,55.40
2019-05-17T09:00:40.660Z,55.40
2019-05-17T09:03:10.737Z,55.00
2019-05-17T09:05:41.741Z,54.50
2019-05-17T09:08:10.562Z,54.40
2019-05-17T09:10:40.733Z,54.50
2019-05-17T09:13:14.000Z,55.00
2019-05-17T09:15:40.562Z,54.20
2019-05-17T09:18:09.854Z,53.60
2019-05-17T09:20:40.536Z,54.20
2019-05-17T09:23:09.724Z,53.70
2019-05-17T09:25:39.786Z,52.60
2019-05-17T09:28:10.171Z,51.90
2019-05-17T09:30:41.843Z,52.20
2019-05-17T09:33:11.327Z,51.90
2019-05-17T09:35:41.033Z,51.70
2019-05-17T09:38:10.575Z,51.50
2019-05-17T09:40:41.720Z,50.80
2019-05-17T09:43:10.375Z,50.80
2019-05-17T09:45:45.346Z,51.70
2019-05-17T09:48:19.474Z,50.80
2019-05-17T09:50:47.432Z,49.90
2019-05-17T09:53:16.070Z,50.30
2019-05-17T09:55:46.158Z,49.90
2019-05-17T09:58:14.670Z,48.70
2019-05-17T10:00:45.100Z,49.20
2019-05-17T10:03:13.719Z,49.10
2019-05-17T10:05:42.417Z,48.40
2019-05-17T10:08:11.160Z,48.70
2019-05-17T10:10:40.313Z,48.60
2019-05-17T10:13:09.746Z,48.70
2019-05-17T10:15:41.288Z,47.90
2019-05-17T10:18:11.134Z,46.90
2019-05-17T10:20:40.135Z,45.70
2019-05-17T10:23:10.485Z,46.90
2019-05-17T10:25:40.152Z,47.30
2019-05-17T10:28:10.140Z,45.90
2019-05-17T10:30:39.783Z,46.20
2019-05-17T10:33:10.203Z,45.10
2019-05-17T10:35:40.567Z,46.60
2019-05-17T10:38:10.254Z,45.50
2019-05-17T10:40:40.904Z,44.70
2019-05-17T10:43:10.211Z,44.80
2019-05-17T10:45:40.153Z,45.60
2019-05-17T10:48:10.326Z,45.80
2019-05-17T10:50:40.663Z,45.70
2019-05-17T10:53:10.201Z,44.10
2019-05-17T10:55:39.899Z,45.30
2019-05-17T10:58:10.060Z,44.90
2019-05-17T11:00:41.247Z,43.80
2019-05-17T11:03:09.831Z,44.90
2019-05-17T11:05:40.141Z,43.10
2019-05-17T11:08:10.701Z,43.20
2019-05-17T11:10:39.478Z,42.10
2019-05-17T11:13:08.570Z,40.50
2019-05-17T11:15:37.185Z,38.30
2019-05-17T11:18:06.357Z,37.50
2019-05-17T11:20:36.502Z,36.50
2019-05-17T11:23:05.373Z,34.40
2019-05-17T11:25:34.013Z,34.50
2019-05-17T11:28:02.686Z,33.40
2019-05-17T11:30:31.617Z,34.30
2019-05-17T11:33:00.343Z,35.20
2019-05-17T11:35:29.023Z,34.10
2019-05-17T11:37:57.574Z,33.40
2019-05-17T11:40:26.318Z,32.60
2019-05-17T11:42:54.877Z,33.60
2019-05-17T11:45:27.886Z,34.60
2019-05-17T11:47:53.727Z,34.40
2019-05-17T11:50:22.469Z,34.40
2019-05-17T11:52:51.022Z,33.80
2019-05-17T11:55:19.641Z,33.70
2019-05-17T11:57:48.469Z,33.40
2019-05-17T12:00:18.545Z,32.50
2019-05-17T12:02:47.186Z,31.70
2019-05-17T12:05:16.108Z,33.20
2019-05-17T12:07:44.785Z,33.50
2019-05-17T12:10:15.152Z,33.90
2019-05-17T12:12:43.655Z,34.20
2019-05-17T12:15:12.519Z,35.00
2019-05-17T12:17:41.155Z,35.30
2019-05-17T12:20:10.349Z,35.60
2019-05-17T12:22:38.929Z,36.00
2019-05-17T12:25:08.114Z,36.10
2019-05-17T12:27:36.834Z,35.20
2019-05-17T12:30:07.865Z,33.90
2019-05-17T12:32:36.510Z,34.00
2019-05-17T12:35:05.865Z,33.60
2019-05-17T12:37:34.502Z,33.10
2019-05-17T12:40:04.507Z,34.60
2019-05-17T12:42:33.141Z,35.10
2019-05-17T12:45:02.301Z,35.50
2019-05-17T12:47:31.141Z,36.60
2019-05-17T12:49:59.701Z,36.70
2019-05-17T12:52:29.137Z,36.50
2019-05-17T12:54:57.633Z,36.80
2019-05-17T12:57:26.353Z,37.10
2019-05-17T12:59:54.981Z,37.90
2019-05-17T13:02:25.162Z,37.60
2019-05-17T13:04:53.940Z,38.00
2019-05-17T13:07:22.646Z,38.10
2019-05-17T13:09:51.252Z,37.30
2019-05-17T13:12:19.891Z,38.20
2019-05-17T13:14:49.152Z,38.10
2019-05-17T13:17:17.722Z,38.00
2019-05-17T13:19:46.385Z,39.00
2019-05-17T13:22:15.095Z,39.70
2019-05-17T13:24:43.692Z,39.60
2019-05-17T13:27:12.517Z,39.30
2019-05-17T13:29:41.149Z,40.00
2019-05-17T13:32:09.699Z,40.40
2019-05-17T13:34:38.359Z,39.70
2019-05-17T13:37:06.905Z,40.40
2019-05-17T13:39:35.413Z,39.60
2019-05-17T13:42:04.146Z,40.00
2019-05-17T13:44:32.727Z,40.10
2019-05-17T13:47:01.348Z,40.10
2019-05-17T13:49:30.040Z,40.10
2019-05-17T13:51:58.681Z,41.70
2019-05-17T13:54:28.084Z,40.90
2019-05-17T13:56:56.635Z,42.20
2019-05-17T13:59:25.214Z,41.70
2019-05-17T14:01:53.770Z,41.60
2019-05-17T14:04:22.418Z,41.60
2019-05-17T14:06:51.052Z,41.50
2019-05-17T14:09:19.719Z,41.30
2019-05-17T14:11:48.320Z,41.90
2019-05-17T14:14:16.938Z,41.80
2019-05-17T14:16:45.531Z,42.40
2019-05-17T14:19:14.188Z,42.40
2019-05-17T14:21:42.720Z,42.80
2019-05-17T14:24:11.323Z,43.00
2019-05-17T14:26:39.909Z,43.20
2019-05-17T14:29:14.835Z,44.00
2019-05-17T14:31:45.868Z,43.50
2019-05-17T14:34:16.570Z,43.30
2019-05-17T14:36:45.233Z,43.90
2019-05-17T14:39:13.940Z,43.70
2019-05-17T14:41:42.571Z,43.70
2019-05-17T14:44:11.211Z,44.20
2019-05-17T14:46:39.758Z,44.50
2019-05-17T14:49:08.424Z,44.60
2019-05-17T14:51:37.070Z,44.80
2019-05-17T14:54:05.773Z,44.80
2019-05-17T14:56:34.551Z,45.00
2019-05-17T14:59:03.306Z,44.90
2019-05-17T15:01:32.946Z,45.20
2019-05-17T15:04:01.751Z,44.70
2019-05-17T15:06:30.521Z,45.10
2019-05-17T15:08:59.137Z,44.20
2019-05-17T15:11:27.804Z,44.60
2019-05-17T15:13:56.383Z,44.20
2019-05-17T15:16:25.299Z,43.70
2019-05-17T15:18:53.983Z,43.70
2019-05-17T15:21:22.669Z,43.60
2019-05-17T15:23:52.225Z,44.00
2019-05-17T15:26:20.993Z,44.00
2019-05-17T15:28:49.522Z,44.60
2019-05-17T15:31:18.129Z,44.90
2019-05-17T15:33:46.769Z,45.80
2019-05-17T15:36:15.437Z,46.30
2019-05-17T15:38:44.008Z,47.00
2019-05-17T15:41:12.647Z,47.70
2019-05-17T15:43:41.658Z,47.80
2019-05-17T15:46:10.281Z,48.10
2019-05-17T15:48:39.016Z,48.30
2019-05-17T15:51:07.602Z,48.50
2019-05-17T15:53:36.322Z,49.00
2019-05-17T15:56:05.059Z,50.20
2019-05-17T15:58:33.723Z,51.10
2019-05-17T16:01:02.411Z,51.50
2019-05-17T16:03:31.304Z,51.10
2019-05-17T16:05:59.911Z,51.30
2019-05-17T16:08:29.757Z,51.30
2019-05-17T16:10:58.478Z,52.10
2019-05-17T16:13:27.079Z,52.60
2019-05-17T16:15:55.713Z,52.60
2019-05-17T16:18:24.383Z,53.10
2019-05-17T16:20:52.975Z,53.50
2019-05-17T16:23:21.557Z,53.80
2019-05-17T16:25:50.175Z,54.50
2019-05-17T16:28:18.809Z,54.90
2019-05-17T16:30:47.484Z,54.80
2019-05-17T16:33:16.110Z,55.00
2019-05-17T16:35:44.682Z,56.20
2019-05-17T16:38:13.312Z,57.30
2019-05-17T16:40:41.954Z,58.10
2019-05-17T16:43:18.172Z,57.70
2019-05-17T16:45:41.275Z,58.50
2019-05-17T16:48:09.830Z,58.40
2019-05-17T16:50:38.467Z,59.80
2019-05-17T16:53:07.307Z,60.10
2019-05-17T16:55:35.939Z,59.30
2019-05-17T16:58:04.630Z,58.90
2019-05-17T17:00:39.217Z,60.20
2019-05-17T17:03:07.834Z,61.00
2019-05-17T17:05:40.581Z,60.60
2019-05-17T17:08:09.222Z,62.60
2019-05-17T17:10:37.791Z,62.80
2019-05-17T17:13:06.627Z,63.10
2019-05-17T17:15:35.338Z,62.90
2019-05-17T17:18:04.482Z,62.60
2019-05-17T17:20:33.198Z,64.50
2019-05-17T17:23:02.015Z,64.60
2019-05-17T17:25:30.686Z,66.20
2019-05-17T17:27:59.374Z,68.40
2019-05-17T17:30:28.013Z,70.70
2019-05-17T17:32:57.449Z,72.50
2019-05-17T17:35:26.058Z,71.80
2019-05-17T17:37:54.746Z,72.30
2019-05-17T17:40:23.760Z,73.30
2019-05-17T17:42:52.454Z,75.40
2019-05-17T17:45:25.742Z,74.40
2019-05-17T17:47:54.367Z,75.90
2019-05-17T17:50:23.991Z,76.70
2019-05-17T17:52:52.977Z,76.60
2019-05-17T17:55:21.812Z,77.80
2019-05-17T17:57:50.704Z,78.80
2019-05-17T18:00:25.687Z,80.60
2019-05-17T18:02:59.110Z,80.40
2019-05-17T18:05:28.189Z,81.40
2019-05-17T18:07:56.781Z,82.30
2019-05-17T18:10:28.469Z,82.30
2019-05-17T18:12:57.183Z,83.60
2019-05-17T18:15:37.143Z,82.30
2019-05-17T18:18:05.853Z,82.20
2019-05-17T18:20:34.750Z,79.40
2019-05-17T18:23:03.651Z,81.10
2019-05-17T18:25:32.428Z,79.80
2019-05-17T18:28:01.058Z,79.30
2019-05-17T18:30:29.798Z,76.60
2019-05-17T18:32:58.426Z,74.40
2019-05-17T18:35:27.118Z,74.20
2019-05-17T18:37:55.929Z,72.40
2019-05-17T18:40:24.676Z,72.90
2019-05-17T18:42:53.425Z,73.00
2019-05-17T18:45:22.446Z,71.10
2019-05-17T18:47:51.204Z,69.50
2019-05-17T18:50:20.091Z,69.80
2019-05-17T18:52:48.810Z,69.20
2019-05-17T18:55:17.523Z,69.50
2019-05-17T18:57:46.254Z,69.30
2019-05-17T19:00:16.133Z,69.70
2019-05-17T19:02:44.783Z,69.60
2019-05-17T19:05:14.779Z,69.70
2019-05-17T19:07:45.659Z,70.20
2019-05-17T19:10:14.636Z,72.70
2019-05-17T19:12:43.750Z,74.60
2019-05-17T19:15:12.690Z,77.10
2019-05-17T19:17:41.422Z,80.00
2019-05-17T19:20:12.418Z,82.30
2019-05-17T19:22:41.308Z,83.20
2019-05-17T19:25:10.967Z,85.40
2019-05-17T19:27:39.591Z,86.90
2019-05-17T19:30:08.671Z,88.90
2019-05-17T19:32:37.270Z,90.20
2019-05-17T19:35:06.959Z,90.90
2019-05-17T19:37:35.531Z,91.50
2019-05-17T19:40:07.307Z,91.90
2019-05-17T19:42:36.009Z,92.10
2019-05-17T19:45:07.209Z,92.60
2019-05-17T19:47:35.963Z,92.10
2019-05-17T19:50:06.686Z,92.00
2019-05-17T19:52:36.671Z,91.70
2019-05-17T19:55:06.448Z,92.10
2019-05-17T19:57:35.165Z,91.60
2019-05-17T20:00:06.292Z,91.00
2019-05-17T20:02:39.442Z,91.60
2019-05-17T20:05:08.594Z,91.60
2019-05-17T20:07:39.241Z,91.70
2019-05-17T20:10:08.542Z,92.10
2019-05-17T20:12:37.305Z,91.20
2019-05-17T20:15:16.662Z,89.60
2019-05-17T20:17:37.703Z,87.30
2019-05-17T20:20:08.052Z,85.30
2019-05-17T20:22:42.732Z,84.30
2019-05-17T20:25:11.617Z,82.00
2019-05-17T20:27:40.320Z,81.60
2019-05-17T20:30:10.448Z,80.70
2019-05-17T20:32:39.219Z,80.80
2019-05-17T20:35:08.926Z,80.70
2019-05-17T20:37:37.680Z,80.60
2019-05-17T20:40:07.289Z,80.30
2019-05-17T20:42:35.896Z,79.90
2019-05-17T20:45:07.346Z,79.70
2019-05-17T20:47:36.109Z,80.00
2019-05-17T20:50:08.801Z,80.60
2019-05-17T20:52:37.486Z,80.90
2019-05-17T20:55:06.884Z,80.40
2019-05-17T20:57:35.645Z,80.90
2019-05-17T21:00:07.224Z,80.90
2019-05-17T21:02:36.090Z,81.10
2019-05-17T21:05:07.243Z,81.70
2019-05-17T21:07:38.155Z,81.90
2019-05-17T21:10:07.605Z,82.50
2019-05-17T21:12:36.157Z,82.30
2019-05-17T21:15:06.793Z,82.40
2019-05-17T21:17:35.430Z,83.30
2019-05-17T21:20:07.684Z,82.60
2019-05-17T21:22:36.997Z,82.90
2019-05-17T21:25:06.461Z,83.10
2019-05-17T21:27:35.161Z,83.30
2019-05-17T21:30:04.366Z,83.90
2019-05-17T21:32:33.040Z,83.90
2019-05-17T21:35:01.582Z,84.40
2019-05-17T21:37:30.202Z,84.80
2019-05-17T21:39:58.804Z,85.00
2019-05-17T21:42:27.342Z,85.00
2019-05-17T21:44:55.918Z,85.10
2019-05-17T21:47:24.471Z,84.80
2019-05-17T21:49:53.111Z,84.80
2019-05-17T21:52:22.167Z,85.10
2019-05-17T21:54:50.807Z,85.50
2019-05-17T21:57:19.435Z,85.70
2019-05-17T21:59:48.013Z,86.50
2019-05-17T22:02:16.739Z,86.80
2019-05-17T22:04:45.317Z,87.30
2019-05-17T22:07:13.965Z,87.80
2019-05-17T22:09:42.634Z,88.20
2019-05-17T22:12:12.914Z,88.70
2019-05-17T22:14:41.525Z,89.20
2019-05-17T22:17:11.906Z,89.50
2019-05-17T22:19:40.573Z,89.80
2019-05-17T22:22:09.186Z,90.10
2019-05-17T22:24:37.870Z,90.10
2019-05-17T22:27:06.489Z,90.10
2019-05-17T22:29:35.146Z,90.30
2019-05-17T22:32:04.155Z,90.40
2019-05-17T22:34:32.789Z,90.50
2019-05-17T22:37:04.166Z,90.70
2019-05-17T22:39:32.764Z,90.80
2019-05-17T22:42:01.478Z,90.90
2019-05-17T22:44:30.159Z,91.10
2019-05-17T22:46:58.724Z,91.20
2019-05-17T22:49:27.269Z,91.40
2019-05-17T22:51:55.825Z,91.30
2019-05-17T22:54:26.566Z,91.20
2019-05-17T22:56:55.211Z,91.50
2019-05-17T22:59:23.866Z,91.40
2019-05-17T23:01:52.551Z,91.30
2019-05-17T23:04:23.179Z,91.20
2019-05-17T23:06:51.447Z,91.20
2019-05-17T23:09:20.234Z,91.40
2019-05-17T23:11:48.777Z,91.30
2019-05-17T23:14:17.276Z,91.30
2019-05-17T23:16:51.603Z,91.40
2019-05-17T23:19:16.456Z,91.40
2019-05-17T23:21:45.078Z,91.70
2019-05-17T23:24:15.466Z,91.50
2019-05-17T23:26:44.084Z,91.60
2019-05-17T23:29:12.628Z,91.40
2019-05-17T23:31:41.202Z,91.70
2019-05-17T23:34:09.905Z,91.70
2019-05-17T23:36:38.462Z,91.60
2019-05-17T23:39:07.638Z,91.70
2019-05-17T23:41:36.353Z,91.70
2019-05-17T23:44:05.247Z,91.80
2019-05-17T23:46:33.910Z,92.00
2019-05-17T23:49:02.529Z,92.40
2019-05-17T23:51:31.109Z,93.00
2019-05-17T23:53:59.833Z,93.50
2019-05-17T23:56:28.549Z,94.10
2019-05-17T23:58:57.233Z,94.40
